sensor_id;sensor_type;location;lat;lon;timestamp;P1;durP1;ratioP1;P2;durP2;ratioP2
23082;SDS011;11709;52.420;10.538;2023-01-26T00:02:21;4.97;;;4.17;;
23082;SDS011;11709;52.420;10.538;2023-01-26T00:06:24;4.65;;;3.08;;
23082;SDS011;11709;52.420;10.538;2023-01-26T00:10:27;5.15;;;3.77;;
23082;SDS011;11709;52.420;10.538;2023-01-26T00:14:29;6.95;;;4.97;;
23082;SDS011;11709;52.420;10.538;2023-01-26T00:18:35;5.90;;;4.45;;
23082;SDS011;11709;52.420;10.538;2023-01-26T00:22:39;5.87;;;4.10;;
23082;SDS011;11709;52.420;10.538;2023-01-26T00:26:41;6.17;;;4.03;;
23082;SDS011;11709;52.420;10.538;2023-01-26T00:30:44;6.15;;;3.65;;
23082;SDS011;11709;52.420;10.538;2023-01-26T00:34:46;4.97;;;3.70;;
23082;SDS011;11709;52.420;10.538;2023-01-26T00:38:49;6.90;;;5.60;;
23082;SDS011;11709;52.420;10.538;2023-01-26T00:42:51;5.85;;;3.90;;
23082;SDS011;11709;52.420;10.538;2023-01-26T00:46:54;6.80;;;5.40;;
23082;SDS011;11709;52.420;10.538;2023-01-26T00:50:56;6.70;;;5.83;;
23082;SDS011;11709;52.420;10.538;2023-01-26T00:54:59;5.83;;;4.20;;
23082;SDS011;11709;52.420;10.538;2023-01-26T00:59:01;6.65;;;4.28;;
23082;SDS011;11709;52.420;10.538;2023-01-26T01:03:06;6.15;;;3.77;;
23082;SDS011;11709;52.420;10.538;2023-01-26T01:07:08;5.53;;;4.12;;
23082;SDS011;11709;52.420;10.538;2023-01-26T01:11:11;6.15;;;3.70;;
23082;SDS011;11709;52.420;10.538;2023-01-26T01:15:13;6.40;;;4.20;;
23082;SDS011;11709;52.420;10.538;2023-01-26T01:19:17;6.28;;;3.95;;
23082;SDS011;11709;52.420;10.538;2023-01-26T01:23:19;5.67;;;3.83;;
23082;SDS011;11709;52.420;10.538;2023-01-26T01:27:22;6.65;;;4.12;;
23082;SDS011;11709;52.420;10.538;2023-01-26T01:31:25;6.12;;;4.03;;
23082;SDS011;11709;52.420;10.538;2023-01-26T01:35:29;4.20;;;3.52;;
23082;SDS011;11709;52.420;10.538;2023-01-26T01:39:31;4.45;;;3.92;;
23082;SDS011;11709;52.420;10.538;2023-01-26T01:43:34;7.67;;;7.05;;
23082;SDS011;11709;52.420;10.538;2023-01-26T01:47:37;5.20;;;4.22;;
23082;SDS011;11709;52.420;10.538;2023-01-26T01:51:41;4.80;;;4.33;;
23082;SDS011;11709;52.420;10.538;2023-01-26T01:55:47;6.20;;;3.62;;
23082;SDS011;11709;52.420;10.538;2023-01-26T02:00:05;5.85;;;3.92;;
23082;SDS011;11709;52.420;10.538;2023-01-26T02:04:00;6.25;;;4.45;;
23082;SDS011;11709;52.420;10.538;2023-01-26T02:16:12;4.90;;;3.33;;
23082;SDS011;11709;52.420;10.538;2023-01-26T02:24:20;4.43;;;3.90;;
23082;SDS011;11709;52.420;10.538;2023-01-26T02:28:30;6.25;;;4.17;;
23082;SDS011;11709;52.420;10.538;2023-01-26T02:32:32;5.47;;;3.92;;
23082;SDS011;11709;52.420;10.538;2023-01-26T02:36:35;4.97;;;3.30;;
23082;SDS011;11709;52.420;10.538;2023-01-26T02:40:52;6.90;;;3.62;;
23082;SDS011;11709;52.420;10.538;2023-01-26T02:44:55;6.83;;;5.75;;
23082;SDS011;11709;52.420;10.538;2023-01-26T02:53:18;5.05;;;3.10;;
23082;SDS011;11709;52.420;10.538;2023-01-26T03:17:30;4.47;;;3.77;;
23082;SDS011;11709;52.420;10.538;2023-01-26T03:21:32;5.87;;;4.62;;
23082;SDS011;11709;52.420;10.538;2023-01-26T03:30:14;4.25;;;3.85;;
23082;SDS011;11709;52.420;10.538;2023-01-26T03:42:22;3.30;;;2.80;;
23082;SDS011;11709;52.420;10.538;2023-01-26T03:46:43;5.75;;;3.55;;
23082;SDS011;11709;52.420;10.538;2023-01-26T03:51:03;5.55;;;3.17;;
23082;SDS011;11709;52.420;10.538;2023-01-26T03:55:24;5.55;;;3.10;;
23082;SDS011;11709;52.420;10.538;2023-01-26T03:59:45;6.40;;;3.58;;
23082;SDS011;11709;52.420;10.538;2023-01-26T04:03:48;5.60;;;3.58;;
23082;SDS011;11709;52.420;10.538;2023-01-26T04:08:09;5.67;;;3.12;;
23082;SDS011;11709;52.420;10.538;2023-01-26T04:12:22;5.70;;;3.20;;
23082;SDS011;11709;52.420;10.538;2023-01-26T04:16:25;5.67;;;3.22;;
23082;SDS011;11709;52.420;10.538;2023-01-26T04:20:45;5.12;;;3.60;;
23082;SDS011;11709;52.420;10.538;2023-01-26T04:25:06;5.70;;;3.33;;
23082;SDS011;11709;52.420;10.538;2023-01-26T04:29:10;6.15;;;3.55;;
23082;SDS011;11709;52.420;10.538;2023-01-26T04:33:13;6.55;;;5.03;;
23082;SDS011;11709;52.420;10.538;2023-01-26T04:37:16;5.92;;;4.05;;
23082;SDS011;11709;52.420;10.538;2023-01-26T04:41:19;5.72;;;3.47;;
23082;SDS011;11709;52.420;10.538;2023-01-26T04:45:21;5.20;;;2.85;;
23082;SDS011;11709;52.420;10.538;2023-01-26T04:49:24;4.62;;;3.58;;
23082;SDS011;11709;52.420;10.538;2023-01-26T04:53:26;5.45;;;4.08;;
23082;SDS011;11709;52.420;10.538;2023-01-26T04:57:30;5.60;;;3.45;;
23082;SDS011;11709;52.420;10.538;2023-01-26T05:01:32;5.40;;;3.25;;
23082;SDS011;11709;52.420;10.538;2023-01-26T05:05:35;4.67;;;3.87;;
23082;SDS011;11709;52.420;10.538;2023-01-26T05:09:39;6.30;;;4.28;;
23082;SDS011;11709;52.420;10.538;2023-01-26T05:13:41;5.08;;;3.55;;
23082;SDS011;11709;52.420;10.538;2023-01-26T05:17:44;4.97;;;3.90;;
23082;SDS011;11709;52.420;10.538;2023-01-26T05:21:46;4.60;;;2.90;;
23082;SDS011;11709;52.420;10.538;2023-01-26T05:25:49;5.50;;;3.70;;
23082;SDS011;11709;52.420;10.538;2023-01-26T05:29:51;6.35;;;4.10;;
23082;SDS011;11709;52.420;10.538;2023-01-26T05:33:56;6.00;;;3.17;;
23082;SDS011;11709;52.420;10.538;2023-01-26T05:37:58;5.83;;;3.05;;
23082;SDS011;11709;52.420;10.538;2023-01-26T05:42:01;6.00;;;3.33;;
23082;SDS011;11709;52.420;10.538;2023-01-26T05:46:04;3.75;;;3.15;;
23082;SDS011;11709;52.420;10.538;2023-01-26T05:50:06;4.42;;;3.45;;
23082;SDS011;11709;52.420;10.538;2023-01-26T05:54:09;4.40;;;3.17;;
23082;SDS011;11709;52.420;10.538;2023-01-26T05:58:12;4.62;;;3.40;;
23082;SDS011;11709;52.420;10.538;2023-01-26T06:02:14;4.83;;;3.40;;
23082;SDS011;11709;52.420;10.538;2023-01-26T06:06:17;5.45;;;3.55;;
23082;SDS011;11709;52.420;10.538;2023-01-26T06:10:19;5.55;;;2.98;;
23082;SDS011;11709;52.420;10.538;2023-01-26T06:14:22;5.45;;;3.72;;
23082;SDS011;11709;52.420;10.538;2023-01-26T06:18:24;7.03;;;4.87;;
23082;SDS011;11709;52.420;10.538;2023-01-26T06:22:27;7.17;;;4.37;;
23082;SDS011;11709;52.420;10.538;2023-01-26T06:26:29;5.90;;;2.98;;
23082;SDS011;11709;52.420;10.538;2023-01-26T06:30:32;6.92;;;4.05;;
23082;SDS011;11709;52.420;10.538;2023-01-26T06:34:34;5.97;;;3.67;;
23082;SDS011;11709;52.420;10.538;2023-01-26T06:38:37;5.42;;;3.55;;
23082;SDS011;11709;52.420;10.538;2023-01-26T06:42:45;5.55;;;3.47;;
23082;SDS011;11709;52.420;10.538;2023-01-26T06:46:48;5.85;;;3.37;;
23082;SDS011;11709;52.420;10.538;2023-01-26T06:50:50;4.90;;;3.42;;
23082;SDS011;11709;52.420;10.538;2023-01-26T06:54:54;5.67;;;3.35;;
23082;SDS011;11709;52.420;10.538;2023-01-26T06:58:58;6.53;;;4.83;;
23082;SDS011;11709;52.420;10.538;2023-01-26T07:03:01;5.47;;;3.55;;
23082;SDS011;11709;52.420;10.538;2023-01-26T07:07:03;5.00;;;3.35;;
23082;SDS011;11709;52.420;10.538;2023-01-26T07:11:06;4.30;;;3.10;;
23082;SDS011;11709;52.420;10.538;2023-01-26T07:15:10;5.35;;;4.17;;
23082;SDS011;11709;52.420;10.538;2023-01-26T07:19:13;6.20;;;4.28;;
23082;SDS011;11709;52.420;10.538;2023-01-26T07:23:16;5.10;;;3.55;;
23082;SDS011;11709;52.420;10.538;2023-01-26T07:27:18;4.62;;;3.67;;
23082;SDS011;11709;52.420;10.538;2023-01-26T07:31:21;5.37;;;3.72;;
23082;SDS011;11709;52.420;10.538;2023-01-26T07:35:23;5.33;;;3.62;;
23082;SDS011;11709;52.420;10.538;2023-01-26T07:39:26;6.08;;;3.77;;
23082;SDS011;11709;52.420;10.538;2023-01-26T07:43:30;5.70;;;4.35;;
23082;SDS011;11709;52.420;10.538;2023-01-26T07:47:33;6.15;;;4.45;;
23082;SDS011;11709;52.420;10.538;2023-01-26T07:51:37;5.12;;;3.72;;
23082;SDS011;11709;52.420;10.538;2023-01-26T07:55:41;4.30;;;3.65;;
23082;SDS011;11709;52.420;10.538;2023-01-26T07:59:43;5.40;;;4.28;;
23082;SDS011;11709;52.420;10.538;2023-01-26T08:03:48;4.95;;;3.85;;
23082;SDS011;11709;52.420;10.538;2023-01-26T08:07:51;4.58;;;3.33;;
23082;SDS011;11709;52.420;10.538;2023-01-26T08:11:55;6.30;;;3.65;;
23082;SDS011;11709;52.420;10.538;2023-01-26T08:16:04;16.50;;;10.70;;
23082;SDS011;11709;52.420;10.538;2023-01-26T08:20:04;15.60;;;14.40;;
23082;SDS011;11709;52.420;10.538;2023-01-26T08:24:09;13.43;;;6.58;;
23082;SDS011;11709;52.420;10.538;2023-01-26T08:28:12;9.73;;;6.92;;
23082;SDS011;11709;52.420;10.538;2023-01-26T08:32:14;8.30;;;4.70;;
23082;SDS011;11709;52.420;10.538;2023-01-26T08:36:17;5.25;;;3.67;;
23082;SDS011;11709;52.420;10.538;2023-01-26T08:40:20;5.12;;;3.65;;
23082;SDS011;11709;52.420;10.538;2023-01-26T08:44:24;4.30;;;3.45;;
23082;SDS011;11709;52.420;10.538;2023-01-26T08:48:27;4.00;;;3.55;;
23082;SDS011;11709;52.420;10.538;2023-01-26T08:52:31;4.80;;;4.33;;
23082;SDS011;11709;52.420;10.538;2023-01-26T08:56:33;5.05;;;4.37;;
23082;SDS011;11709;52.420;10.538;2023-01-26T09:00:36;7.95;;;7.22;;
23082;SDS011;11709;52.420;10.538;2023-01-26T09:04:38;5.45;;;4.53;;
23082;SDS011;11709;52.420;10.538;2023-01-26T09:08:41;6.92;;;6.30;;
23082;SDS011;11709;52.420;10.538;2023-01-26T09:12:43;6.25;;;5.65;;
23082;SDS011;11709;52.420;10.538;2023-01-26T09:16:46;5.40;;;4.55;;
23082;SDS011;11709;52.420;10.538;2023-01-26T09:20:48;5.85;;;5.25;;
23082;SDS011;11709;52.420;10.538;2023-01-26T09:24:51;6.67;;;5.65;;
23082;SDS011;11709;52.420;10.538;2023-01-26T09:28:53;8.50;;;7.80;;
23082;SDS011;11709;52.420;10.538;2023-01-26T09:32:59;5.55;;;4.53;;
23082;SDS011;11709;52.420;10.538;2023-01-26T09:37:05;16.67;;;7.17;;
23082;SDS011;11709;52.420;10.538;2023-01-26T09:45:47;25.55;;;10.58;;
23082;SDS011;11709;52.420;10.538;2023-01-26T09:50:01;12.40;;;6.30;;
23082;SDS011;11709;52.420;10.538;2023-01-26T09:58:17;8.03;;;5.72;;
23082;SDS011;11709;52.420;10.538;2023-01-26T10:02:34;8.35;;;7.45;;
23082;SDS011;11709;52.420;10.538;2023-01-26T10:06:35;7.07;;;6.50;;
23082;SDS011;11709;52.420;10.538;2023-01-26T10:10:46;8.98;;;7.90;;
23082;SDS011;11709;52.420;10.538;2023-01-26T10:14:55;6.97;;;6.10;;
23082;SDS011;11709;52.420;10.538;2023-01-26T10:19:02;7.70;;;7.00;;
23082;SDS011;11709;52.420;10.538;2023-01-26T10:23:14;8.25;;;7.30;;
23082;SDS011;11709;52.420;10.538;2023-01-26T10:27:19;9.80;;;7.70;;
23082;SDS011;11709;52.420;10.538;2023-01-26T10:31:30;6.97;;;6.22;;
23082;SDS011;11709;52.420;10.538;2023-01-26T10:35:29;6.60;;;6.00;;
23082;SDS011;11709;52.420;10.538;2023-01-26T10:39:32;7.70;;;7.00;;
23082;SDS011;11709;52.420;10.538;2023-01-26T10:43:36;17.07;;;15.72;;
23082;SDS011;11709;52.420;10.538;2023-01-26T10:47:40;7.37;;;6.67;;
23082;SDS011;11709;52.420;10.538;2023-01-26T10:51:43;8.15;;;7.45;;
23082;SDS011;11709;52.420;10.538;2023-01-26T10:56:03;7.62;;;7.12;;
23082;SDS011;11709;52.420;10.538;2023-01-26T11:00:24;6.70;;;6.10;;
23082;SDS011;11709;52.420;10.538;2023-01-26T11:04:31;9.90;;;7.03;;
23082;SDS011;11709;52.420;10.538;2023-01-26T11:08:34;14.30;;;9.83;;
23082;SDS011;11709;52.420;10.538;2023-01-26T11:12:38;8.05;;;6.58;;
23082;SDS011;11709;52.420;10.538;2023-01-26T11:16:50;6.22;;;5.65;;
23082;SDS011;11709;52.420;10.538;2023-01-26T11:20:52;7.20;;;6.45;;
23082;SDS011;11709;52.420;10.538;2023-01-26T11:25:25;8.00;;;7.35;;
23082;SDS011;11709;52.420;10.538;2023-01-26T11:29:46;8.58;;;7.97;;
23082;SDS011;11709;52.420;10.538;2023-01-26T11:38:31;8.15;;;7.45;;
23082;SDS011;11709;52.420;10.538;2023-01-26T11:42:54;6.65;;;6.05;;
23082;SDS011;11709;52.420;10.538;2023-01-26T11:47:26;8.80;;;6.90;;
23082;SDS011;11709;52.420;10.538;2023-01-26T12:04:44;8.33;;;7.30;;
23082;SDS011;11709;52.420;10.538;2023-01-26T12:08:51;13.13;;;12.00;;
23082;SDS011;11709;52.420;10.538;2023-01-26T12:13:37;9.57;;;8.90;;
23082;SDS011;11709;52.420;10.538;2023-01-26T12:17:31;9.20;;;8.60;;
23082;SDS011;11709;52.420;10.538;2023-01-26T12:21:56;8.63;;;7.93;;
23082;SDS011;11709;52.420;10.538;2023-01-26T12:26:01;8.85;;;8.25;;
23082;SDS011;11709;52.420;10.538;2023-01-26T12:34:37;9.73;;;9.05;;
23082;SDS011;11709;52.420;10.538;2023-01-26T12:38:59;9.30;;;8.60;;
23082;SDS011;11709;52.420;10.538;2023-01-26T12:43:15;8.83;;;8.00;;
23082;SDS011;11709;52.420;10.538;2023-01-26T12:47:21;10.43;;;9.40;;
23082;SDS011;11709;52.420;10.538;2023-01-26T12:51:38;10.60;;;9.85;;
23082;SDS011;11709;52.420;10.538;2023-01-26T12:55:45;8.15;;;7.45;;
23082;SDS011;11709;52.420;10.538;2023-01-26T13:00:17;9.88;;;9.18;;
23082;SDS011;11709;52.420;10.538;2023-01-26T13:04:19;9.53;;;8.28;;
23082;SDS011;11709;52.420;10.538;2023-01-26T13:16:53;10.60;;;9.90;;
23082;SDS011;11709;52.420;10.538;2023-01-26T13:20:56;9.68;;;8.98;;
23082;SDS011;11709;52.420;10.538;2023-01-26T13:25:11;11.30;;;10.55;;
23082;SDS011;11709;52.420;10.538;2023-01-26T13:33:32;10.93;;;10.18;;
23082;SDS011;11709;52.420;10.538;2023-01-26T13:37:40;10.48;;;9.78;;
23082;SDS011;11709;52.420;10.538;2023-01-26T13:41:45;10.35;;;9.75;;
23082;SDS011;11709;52.420;10.538;2023-01-26T13:45:52;11.05;;;10.35;;
23082;SDS011;11709;52.420;10.538;2023-01-26T13:54:27;10.73;;;9.93;;
23082;SDS011;11709;52.420;10.538;2023-01-26T13:58:29;11.95;;;11.15;;
23082;SDS011;11709;52.420;10.538;2023-01-26T14:02:33;11.28;;;10.48;;
23082;SDS011;11709;52.420;10.538;2023-01-26T14:06:38;9.75;;;9.05;;
23082;SDS011;11709;52.420;10.538;2023-01-26T14:10:44;10.25;;;9.55;;
23082;SDS011;11709;52.420;10.538;2023-01-26T14:14:46;10.83;;;10.10;;
23082;SDS011;11709;52.420;10.538;2023-01-26T14:19:02;12.37;;;11.57;;
23082;SDS011;11709;52.420;10.538;2023-01-26T14:23:14;12.65;;;11.80;;
23082;SDS011;11709;52.420;10.538;2023-01-26T14:31:36;11.28;;;10.48;;
23082;SDS011;11709;52.420;10.538;2023-01-26T14:35:39;11.85;;;11.08;;
23082;SDS011;11709;52.420;10.538;2023-01-26T14:39:43;12.73;;;11.87;;
23082;SDS011;11709;52.420;10.538;2023-01-26T14:43:48;11.13;;;10.43;;
23082;SDS011;11709;52.420;10.538;2023-01-26T14:47:54;10.50;;;9.87;;
23082;SDS011;11709;52.420;10.538;2023-01-26T14:51:59;11.03;;;10.32;;
23082;SDS011;11709;52.420;10.538;2023-01-26T14:56:02;10.50;;;9.87;;
23082;SDS011;11709;52.420;10.538;2023-01-26T15:00:05;10.33;;;9.67;;
23082;SDS011;11709;52.420;10.538;2023-01-26T15:04:33;9.95;;;9.35;;
23082;SDS011;11709;52.420;10.538;2023-01-26T15:08:24;12.63;;;11.78;;
23082;SDS011;11709;52.420;10.538;2023-01-26T15:12:26;11.03;;;10.32;;
23082;SDS011;11709;52.420;10.538;2023-01-26T15:16:32;11.03;;;10.27;;
23082;SDS011;11709;52.420;10.538;2023-01-26T15:20:42;11.00;;;10.30;;
23082;SDS011;11709;52.420;10.538;2023-01-26T15:24:46;10.95;;;10.25;;
23082;SDS011;11709;52.420;10.538;2023-01-26T15:28:50;10.93;;;10.23;;
23082;SDS011;11709;52.420;10.538;2023-01-26T15:32:54;11.75;;;10.95;;
23082;SDS011;11709;52.420;10.538;2023-01-26T15:36:57;10.20;;;9.58;;
23082;SDS011;11709;52.420;10.538;2023-01-26T15:41:01;10.77;;;10.07;;
23082;SDS011;11709;52.420;10.538;2023-01-26T15:45:25;10.20;;;9.60;;
23082;SDS011;11709;52.420;10.538;2023-01-26T15:49:15;10.10;;;9.50;;
23082;SDS011;11709;52.420;10.538;2023-01-26T15:53:19;11.43;;;10.72;;
23082;SDS011;11709;52.420;10.538;2023-01-26T15:57:22;10.90;;;10.23;;
23082;SDS011;11709;52.420;10.538;2023-01-26T16:01:29;12.68;;;11.88;;
23082;SDS011;11709;52.420;10.538;2023-01-26T16:05:29;12.20;;;11.40;;
23082;SDS011;11709;52.420;10.538;2023-01-26T16:09:31;12.47;;;11.63;;
23082;SDS011;11709;52.420;10.538;2023-01-26T16:13:34;14.37;;;13.37;;
23082;SDS011;11709;52.420;10.538;2023-01-26T16:17:36;12.77;;;11.87;;
23082;SDS011;11709;52.420;10.538;2023-01-26T16:21:39;12.00;;;11.20;;
23082;SDS011;11709;52.420;10.538;2023-01-26T16:25:43;11.93;;;11.12;;
23082;SDS011;11709;52.420;10.538;2023-01-26T16:29:45;13.98;;;13.05;;
23082;SDS011;11709;52.420;10.538;2023-01-26T16:33:48;11.45;;;10.72;;
23082;SDS011;11709;52.420;10.538;2023-01-26T16:37:51;11.75;;;10.95;;
23082;SDS011;11709;52.420;10.538;2023-01-26T16:41:53;12.85;;;11.97;;
23082;SDS011;11709;52.420;10.538;2023-01-26T16:45:56;10.98;;;10.28;;
23082;SDS011;11709;52.420;10.538;2023-01-26T16:49:59;12.70;;;11.87;;
23082;SDS011;11709;52.420;10.538;2023-01-26T16:54:01;10.32;;;9.73;;
23082;SDS011;11709;52.420;10.538;2023-01-26T16:58:04;10.70;;;10.00;;
23082;SDS011;11709;52.420;10.538;2023-01-26T17:02:14;10.50;;;9.80;;
23082;SDS011;11709;52.420;10.538;2023-01-26T17:06:15;11.17;;;10.37;;
23082;SDS011;11709;52.420;10.538;2023-01-26T17:10:19;10.48;;;9.83;;
23082;SDS011;11709;52.420;10.538;2023-01-26T17:14:23;10.58;;;9.90;;
23082;SDS011;11709;52.420;10.538;2023-01-26T17:18:25;13.55;;;12.58;;
23082;SDS011;11709;52.420;10.538;2023-01-26T17:22:28;10.20;;;9.60;;
23082;SDS011;11709;52.420;10.538;2023-01-26T17:26:30;11.00;;;10.27;;
23082;SDS011;11709;52.420;10.538;2023-01-26T17:30:33;10.43;;;9.77;;
23082;SDS011;11709;52.420;10.538;2023-01-26T17:34:35;12.73;;;11.83;;
23082;SDS011;11709;52.420;10.538;2023-01-26T17:38:38;11.68;;;10.88;;
23082;SDS011;11709;52.420;10.538;2023-01-26T17:42:40;11.00;;;10.30;;
23082;SDS011;11709;52.420;10.538;2023-01-26T17:46:43;12.23;;;11.43;;
23082;SDS011;11709;52.420;10.538;2023-01-26T17:50:46;10.57;;;9.87;;
23082;SDS011;11709;52.420;10.538;2023-01-26T17:54:51;9.87;;;9.27;;
23082;SDS011;11709;52.420;10.538;2023-01-26T17:58:54;12.73;;;11.90;;
23082;SDS011;11709;52.420;10.538;2023-01-26T18:02:57;9.85;;;9.25;;
23082;SDS011;11709;52.420;10.538;2023-01-26T18:06:59;10.60;;;9.93;;
23082;SDS011;11709;52.420;10.538;2023-01-26T18:11:03;10.72;;;10.03;;
23082;SDS011;11709;52.420;10.538;2023-01-26T18:15:07;11.70;;;10.95;;
23082;SDS011;11709;52.420;10.538;2023-01-26T18:19:10;12.35;;;11.53;;
23082;SDS011;11709;52.420;10.538;2023-01-26T18:23:12;11.60;;;10.85;;
23082;SDS011;11709;52.420;10.538;2023-01-26T18:27:15;11.50;;;10.80;;
23082;SDS011;11709;52.420;10.538;2023-01-26T18:31:19;10.78;;;10.08;;
23082;SDS011;11709;52.420;10.538;2023-01-26T18:35:23;12.58;;;11.70;;
23082;SDS011;11709;52.420;10.538;2023-01-26T18:39:26;11.40;;;10.70;;
23082;SDS011;11709;52.420;10.538;2023-01-26T18:43:28;11.85;;;11.05;;
23082;SDS011;11709;52.420;10.538;2023-01-26T18:47:32;11.60;;;10.88;;
23082;SDS011;11709;52.420;10.538;2023-01-26T18:51:34;9.53;;;8.93;;
23082;SDS011;11709;52.420;10.538;2023-01-26T18:55:37;12.28;;;11.43;;
23082;SDS011;11709;52.420;10.538;2023-01-26T18:59:39;11.95;;;11.15;;
23082;SDS011;11709;52.420;10.538;2023-01-26T19:03:42;12.55;;;11.75;;
23082;SDS011;11709;52.420;10.538;2023-01-26T19:07:46;10.28;;;9.58;;
23082;SDS011;11709;52.420;10.538;2023-01-26T19:11:49;9.00;;;8.48;;
23082;SDS011;11709;52.420;10.538;2023-01-26T19:15:51;11.20;;;10.45;;
23082;SDS011;11709;52.420;10.538;2023-01-26T19:19:54;10.47;;;9.87;;
23082;SDS011;11709;52.420;10.538;2023-01-26T19:23:56;12.40;;;11.48;;
23082;SDS011;11709;52.420;10.538;2023-01-26T19:28:01;13.10;;;12.18;;
23082;SDS011;11709;52.420;10.538;2023-01-26T19:32:04;11.60;;;10.75;;
23082;SDS011;11709;52.420;10.538;2023-01-26T19:36:06;11.85;;;11.10;;
23082;SDS011;11709;52.420;10.538;2023-01-26T19:40:09;12.77;;;11.90;;
23082;SDS011;11709;52.420;10.538;2023-01-26T19:44:12;11.15;;;10.38;;
23082;SDS011;11709;52.420;10.538;2023-01-26T19:48:15;10.80;;;10.10;;
23082;SDS011;11709;52.420;10.538;2023-01-26T19:52:17;8.98;;;8.43;;
23082;SDS011;11709;52.420;10.538;2023-01-26T19:56:24;11.78;;;10.98;;
23082;SDS011;11709;52.420;10.538;2023-01-26T20:00:28;11.73;;;10.97;;
23082;SDS011;11709;52.420;10.538;2023-01-26T20:04:31;12.80;;;12.00;;
23082;SDS011;11709;52.420;10.538;2023-01-26T20:08:33;13.58;;;12.60;;
23082;SDS011;11709;52.420;10.538;2023-01-26T20:12:36;13.00;;;12.13;;
23082;SDS011;11709;52.420;10.538;2023-01-26T20:16:39;12.20;;;11.40;;
23082;SDS011;11709;52.420;10.538;2023-01-26T20:20:41;11.40;;;10.70;;
23082;SDS011;11709;52.420;10.538;2023-01-26T20:24:45;13.38;;;12.45;;
23082;SDS011;11709;52.420;10.538;2023-01-26T20:28:48;16.73;;;15.65;;
23082;SDS011;11709;52.420;10.538;2023-01-26T20:32:52;11.38;;;10.60;;
23082;SDS011;11709;52.420;10.538;2023-01-26T20:36:54;12.17;;;11.37;;
23082;SDS011;11709;52.420;10.538;2023-01-26T20:40:58;11.07;;;10.37;;
23082;SDS011;11709;52.420;10.538;2023-01-26T20:45:04;12.88;;;12.07;;
23082;SDS011;11709;52.420;10.538;2023-01-26T20:49:09;12.00;;;11.17;;
23082;SDS011;11709;52.420;10.538;2023-01-26T20:53:12;12.13;;;11.33;;
23082;SDS011;11709;52.420;10.538;2023-01-26T20:57:15;11.60;;;10.85;;
23082;SDS011;11709;52.420;10.538;2023-01-26T21:01:18;13.27;;;12.37;;
23082;SDS011;11709;52.420;10.538;2023-01-26T21:05:22;12.68;;;11.85;;
23082;SDS011;11709;52.420;10.538;2023-01-26T21:09:24;13.28;;;12.40;;
23082;SDS011;11709;52.420;10.538;2023-01-26T21:13:27;11.67;;;10.97;;
23082;SDS011;11709;52.420;10.538;2023-01-26T21:17:29;13.25;;;12.35;;
23082;SDS011;11709;52.420;10.538;2023-01-26T21:21:32;13.27;;;12.40;;
23082;SDS011;11709;52.420;10.538;2023-01-26T21:25:34;10.70;;;10.00;;
23082;SDS011;11709;52.420;10.538;2023-01-26T21:29:37;14.63;;;13.63;;
23082;SDS011;11709;52.420;10.538;2023-01-26T21:33:42;13.43;;;12.53;;
23082;SDS011;11709;52.420;10.538;2023-01-26T21:37:46;13.40;;;12.47;;
23082;SDS011;11709;52.420;10.538;2023-01-26T21:41:49;11.73;;;11.00;;
23082;SDS011;11709;52.420;10.538;2023-01-26T21:45:58;13.00;;;12.18;;
23082;SDS011;11709;52.420;10.538;2023-01-26T21:50:01;11.23;;;10.50;;
23082;SDS011;11709;52.420;10.538;2023-01-26T21:54:04;11.73;;;10.97;;
23082;SDS011;11709;52.420;10.538;2023-01-26T21:58:07;13.10;;;12.23;;
23082;SDS011;11709;52.420;10.538;2023-01-26T22:02:27;12.53;;;11.73;;
23082;SDS011;11709;52.420;10.538;2023-01-26T22:06:30;12.80;;;11.97;;
23082;SDS011;11709;52.420;10.538;2023-01-26T22:10:32;11.88;;;11.15;;
23082;SDS011;11709;52.420;10.538;2023-01-26T22:14:35;11.83;;;11.07;;
23082;SDS011;11709;52.420;10.538;2023-01-26T22:18:37;11.37;;;10.63;;
23082;SDS011;11709;52.420;10.538;2023-01-26T22:22:40;12.17;;;11.37;;
23082;SDS011;11709;52.420;10.538;2023-01-26T22:26:43;11.45;;;10.75;;
23082;SDS011;11709;52.420;10.538;2023-01-26T22:30:45;12.07;;;11.27;;
23082;SDS011;11709;52.420;10.538;2023-01-26T22:34:48;13.13;;;12.23;;
23082;SDS011;11709;52.420;10.538;2023-01-26T22:38:50;16.40;;;15.25;;
23082;SDS011;11709;52.420;10.538;2023-01-26T22:42:53;11.80;;;11.08;;
23082;SDS011;11709;52.420;10.538;2023-01-26T22:46:55;13.03;;;12.20;;
23082;SDS011;11709;52.420;10.538;2023-01-26T22:51:05;13.03;;;12.20;;
23082;SDS011;11709;52.420;10.538;2023-01-26T22:55:08;11.90;;;11.15;;
23082;SDS011;11709;52.420;10.538;2023-01-26T22:59:11;13.10;;;12.28;;
23082;SDS011;11709;52.420;10.538;2023-01-26T23:03:13;14.10;;;13.20;;
23082;SDS011;11709;52.420;10.538;2023-01-26T23:07:16;12.93;;;12.10;;
23082;SDS011;11709;52.420;10.538;2023-01-26T23:11:23;13.18;;;12.33;;
23082;SDS011;11709;52.420;10.538;2023-01-26T23:15:27;12.03;;;11.27;;
23082;SDS011;11709;52.420;10.538;2023-01-26T23:19:30;13.43;;;12.60;;
23082;SDS011;11709;52.420;10.538;2023-01-26T23:23:33;13.43;;;12.53;;
23082;SDS011;11709;52.420;10.538;2023-01-26T23:27:36;13.60;;;12.70;;
23082;SDS011;11709;52.420;10.538;2023-01-26T23:31:38;13.03;;;12.20;;
23082;SDS011;11709;52.420;10.538;2023-01-26T23:35:41;14.23;;;13.32;;
23082;SDS011;11709;52.420;10.538;2023-01-26T23:39:44;14.23;;;13.35;;
23082;SDS011;11709;52.420;10.538;2023-01-26T23:43:46;13.55;;;12.70;;
23082;SDS011;11709;52.420;10.538;2023-01-26T23:47:49;12.07;;;11.38;;
23082;SDS011;11709;52.420;10.538;2023-01-26T23:51:51;13.80;;;12.93;;
23082;SDS011;11709;52.420;10.538;2023-01-26T23:55:54;12.98;;;12.18;;
23082;SDS011;11709;52.420;10.538;2023-01-26T23:59:57;13.72;;;12.88;;
